createdAt,value
2022-11-13T00:02:27.657Z,19.90
2022-11-13T00:05:33.698Z,10.48
2022-11-13T00:08:40.054Z,12.65
2022-11-13T00:11:45.651Z,9.77
2022-11-13T00:14:51.192Z,27.77
2022-11-13T00:18:02.558Z,18.58
2022-11-13T00:21:10.158Z,6.40
2022-11-13T00:24:15.414Z,5.70
2022-11-13T00:27:20.958Z,4.80
2022-11-13T00:30:26.503Z,4.68
2022-11-13T00:37:00.241Z,12.48
2022-11-13T00:40:07.105Z,53.70
2022-11-13T00:43:12.864Z,25.85
2022-11-13T00:46:18.148Z,18.75
2022-11-13T00:49:25.054Z,13.35
2022-11-13T00:52:30.571Z,14.43
2022-11-13T00:55:36.576Z,10.57
2022-11-13T00:58:42.208Z,8.48
2022-11-13T01:01:47.732Z,7.62
2022-11-13T01:04:54.616Z,10.80
2022-11-13T01:08:00.138Z,28.45
2022-11-13T01:11:10.952Z,9.20
2022-11-13T01:14:18.014Z,10.23
2022-11-13T01:17:23.563Z,9.48
2022-11-13T01:20:30.582Z,13.18
2022-11-13T01:23:36.591Z,9.32
2022-11-13T01:26:43.142Z,11.75
2022-11-13T01:29:48.443Z,10.88
2022-11-13T01:32:54.016Z,15.27
2022-11-13T01:36:06.271Z,9.02
2022-11-13T01:39:12.542Z,16.98
2022-11-13T01:42:17.917Z,7.68
2022-11-13T01:46:06.075Z,7.47
2022-11-13T01:49:26.044Z,11.70
2022-11-13T01:52:37.626Z,11.12
2022-11-13T01:55:43.265Z,17.42
2022-11-13T01:58:55.408Z,13.77
2022-11-13T02:02:01.193Z,10.20
2022-11-13T02:05:09.238Z,16.73
2022-11-13T02:08:16.236Z,12.52
2022-11-13T02:11:22.364Z,13.88
2022-11-13T02:14:30.740Z,8.32
2022-11-13T02:17:41.863Z,11.00
2022-11-13T02:20:58.909Z,16.25
2022-11-13T02:24:22.085Z,11.50
2022-11-13T02:27:32.280Z,9.02
2022-11-13T02:30:38.532Z,7.55
2022-11-13T02:33:44.079Z,7.03
2022-11-13T02:36:49.405Z,5.55
2022-11-13T02:39:56.130Z,13.70
2022-11-13T02:43:01.520Z,12.57
2022-11-13T02:46:06.989Z,13.68
2022-11-13T02:49:12.825Z,5.93
2022-11-13T02:52:18.386Z,6.05
2022-11-13T02:55:25.440Z,7.87
2022-11-13T02:58:31.248Z,10.07
2022-11-13T03:01:36.751Z,4.55
2022-11-13T03:05:10.827Z,6.05
2022-11-13T03:08:08.369Z,6.60
2022-11-13T03:11:15.294Z,6.55
2022-11-13T03:14:21.655Z,6.28
2022-11-13T03:17:27.115Z,5.53
2022-11-13T03:20:32.490Z,5.25
2022-11-13T03:23:37.898Z,5.97
2022-11-13T03:26:45.095Z,8.13
2022-11-13T03:29:50.928Z,6.70
2022-11-13T03:32:57.024Z,13.70
2022-11-13T03:36:02.734Z,8.18
2022-11-13T03:39:08.647Z,10.85
2022-11-13T03:42:15.850Z,8.93
2022-11-13T03:45:21.506Z,7.43
2022-11-13T03:48:27.626Z,6.93
2022-11-13T03:51:33.599Z,10.85
2022-11-13T03:54:38.905Z,7.18
2022-11-13T03:57:45.640Z,9.55
2022-11-13T04:00:52.423Z,10.73
2022-11-13T04:03:58.019Z,6.95
2022-11-13T04:07:03.646Z,9.02
2022-11-13T04:10:09.914Z,7.90
2022-11-13T04:13:17.281Z,10.45
2022-11-13T04:16:23.281Z,7.45
2022-11-13T04:19:29.252Z,8.32
2022-11-13T04:22:34.670Z,8.23
2022-11-13T04:25:40.071Z,7.50
2022-11-13T04:28:46.821Z,8.77
2022-11-13T04:31:52.266Z,10.05
2022-11-13T04:34:57.858Z,9.40
2022-11-13T04:38:03.384Z,11.07
2022-11-13T04:41:26.741Z,16.95
2022-11-13T04:44:34.183Z,13.27
2022-11-13T04:47:39.879Z,16.50
2022-11-13T04:50:45.461Z,15.13
2022-11-13T04:53:51.062Z,8.27
2022-11-13T04:56:56.808Z,8.13
2022-11-13T05:00:05.053Z,6.75
2022-11-13T05:03:10.630Z,9.73
2022-11-13T05:06:18.307Z,15.07
2022-11-13T05:09:23.731Z,21.65
2022-11-13T05:12:29.167Z,7.57
2022-11-13T05:15:36.058Z,9.93
2022-11-13T05:18:42.636Z,9.30
2022-11-13T05:21:48.535Z,8.43
2022-11-13T05:24:54.183Z,12.18
2022-11-13T05:28:00.098Z,10.75
2022-11-13T05:31:08.908Z,9.30
2022-11-13T05:34:15.000Z,11.05
2022-11-13T05:37:20.641Z,7.60
2022-11-13T05:40:26.335Z,16.77
2022-11-13T05:43:31.978Z,12.32
2022-11-13T05:46:38.916Z,13.75
2022-11-13T05:49:44.956Z,10.57
2022-11-13T05:52:50.537Z,11.18
2022-11-13T05:55:56.293Z,15.48
2022-11-13T05:59:02.800Z,5.65
2022-11-13T06:02:09.931Z,11.07
2022-11-13T06:05:16.295Z,24.58
2022-11-13T06:08:22.504Z,6.60
2022-11-13T06:11:30.298Z,9.18
2022-11-13T06:14:35.989Z,18.70
2022-11-13T06:17:47.114Z,9.60
2022-11-13T06:20:52.593Z,14.02
2022-11-13T06:23:59.065Z,11.12
2022-11-13T06:27:05.163Z,10.85
2022-11-13T06:30:11.924Z,23.08
2022-11-13T06:33:19.012Z,10.20
2022-11-13T06:36:26.272Z,8.38
2022-11-13T06:39:31.806Z,16.35
2022-11-13T06:42:37.251Z,12.05
2022-11-13T06:45:42.775Z,8.82
2022-11-13T06:48:49.754Z,8.38
2022-11-13T06:51:55.533Z,15.90
2022-11-13T06:55:01.577Z,10.35
2022-11-13T06:58:07.419Z,8.18
2022-11-13T07:01:17.300Z,8.00
2022-11-13T07:04:26.593Z,6.05
2022-11-13T07:07:31.933Z,7.97
2022-11-13T07:10:37.866Z,7.50
2022-11-13T07:13:44.437Z,6.68
2022-11-13T07:17:08.530Z,10.05
2022-11-13T07:20:34.588Z,8.13
2022-11-13T07:23:56.181Z,8.25
2022-11-13T07:27:01.871Z,6.95
2022-11-13T07:30:08.396Z,5.22
2022-11-13T07:33:14.231Z,10.63
2022-11-13T07:36:21.154Z,5.93
2022-11-13T07:39:26.695Z,9.73
2022-11-13T07:42:32.093Z,11.93
2022-11-13T07:45:37.674Z,8.23
2022-11-13T07:48:43.259Z,9.77
2022-11-13T07:51:49.920Z,6.85
2022-11-13T07:54:55.612Z,7.82
2022-11-13T07:58:02.088Z,6.82
2022-11-13T08:01:08.090Z,6.45
2022-11-13T08:04:13.758Z,7.57
2022-11-13T08:07:20.769Z,7.10
2022-11-13T08:10:26.787Z,21.08
2022-11-13T08:13:33.329Z,5.72
2022-11-13T08:16:39.419Z,7.03
2022-11-13T08:19:48.436Z,5.80
2022-11-13T08:22:58.598Z,8.88
2022-11-13T08:26:08.375Z,6.82
2022-11-13T08:29:17.923Z,5.78
2022-11-13T08:32:23.909Z,7.47
2022-11-13T08:35:32.434Z,7.40
2022-11-13T08:38:39.641Z,5.97
2022-11-13T08:41:45.380Z,7.87
2022-11-13T08:44:50.945Z,7.93
2022-11-13T08:48:09.798Z,8.32
2022-11-13T08:51:17.019Z,12.07
2022-11-13T08:54:41.542Z,10.02
2022-11-13T08:57:46.811Z,10.80
2022-11-13T09:00:52.198Z,11.45
2022-11-13T09:04:04.940Z,14.20
2022-11-13T09:07:13.375Z,10.32
2022-11-13T09:10:25.242Z,11.95
2022-11-13T09:13:33.123Z,11.98
2022-11-13T09:16:38.751Z,13.38
2022-11-13T09:19:54.348Z,11.52
2022-11-13T09:23:29.827Z,12.50
2022-11-13T09:26:47.158Z,16.05
2022-11-13T09:29:56.559Z,15.57
2022-11-13T09:33:02.717Z,13.50
2022-11-13T09:36:12.744Z,12.13
2022-11-13T09:39:18.489Z,13.30
2022-11-13T09:42:29.392Z,13.70
2022-11-13T09:45:35.202Z,13.88
2022-11-13T09:48:45.240Z,17.27
2022-11-13T09:51:54.101Z,16.60
2022-11-13T09:55:00.819Z,20.83
2022-11-13T09:58:15.009Z,18.60
2022-11-13T10:01:29.640Z,16.98
2022-11-13T10:04:57.781Z,16.12
2022-11-13T10:08:08.864Z,17.65
2022-11-13T10:11:19.691Z,17.60
2022-11-13T10:14:31.041Z,18.05
2022-11-13T10:17:40.524Z,17.95
2022-11-13T10:20:50.434Z,15.50
2022-11-13T10:23:57.936Z,15.63
2022-11-13T10:27:03.513Z,14.80
2022-11-13T10:30:18.468Z,15.60
2022-11-13T10:33:25.486Z,15.30
2022-11-13T10:36:39.029Z,16.33
2022-11-13T10:39:44.920Z,16.12
2022-11-13T10:42:50.726Z,16.85
2022-11-13T10:45:59.880Z,17.62
2022-11-13T10:49:14.723Z,17.75
2022-11-13T10:52:22.583Z,17.37
2022-11-13T10:55:38.972Z,20.42
2022-11-13T10:58:44.572Z,20.23
2022-11-13T11:01:51.414Z,20.98
2022-11-13T11:05:05.624Z,22.23
2022-11-13T11:08:11.993Z,24.40
2022-11-13T11:11:37.174Z,24.85
2022-11-13T11:14:48.849Z,23.17
2022-11-13T11:18:01.299Z,21.40
2022-11-13T11:21:10.854Z,19.10
2022-11-13T11:24:22.162Z,20.83
2022-11-13T11:27:35.570Z,16.30
2022-11-13T11:30:48.583Z,21.92
2022-11-13T11:34:01.797Z,17.30
2022-11-13T11:37:14.637Z,17.83
2022-11-13T11:40:29.255Z,15.93
2022-11-13T11:43:43.608Z,16.85
2022-11-13T11:46:49.683Z,17.80
2022-11-13T11:49:56.773Z,15.35
2022-11-13T11:53:07.588Z,20.27
2022-11-13T11:56:26.323Z,16.95
2022-11-13T12:00:07.718Z,16.92
2022-11-13T12:04:07.771Z,17.85
2022-11-13T12:07:31.531Z,16.75
2022-11-13T12:10:45.901Z,18.50
2022-11-13T12:14:00.362Z,19.58
2022-11-13T12:17:21.523Z,17.10
2022-11-13T12:20:38.134Z,18.37
2022-11-13T12:24:13.114Z,15.27
2022-11-13T12:27:27.610Z,18.55
2022-11-13T12:30:43.839Z,19.48
2022-11-13T12:34:01.250Z,19.77
2022-11-13T12:37:13.829Z,18.45
2022-11-13T12:40:29.731Z,18.55
2022-11-13T12:43:55.587Z,18.62
2022-11-13T12:47:08.755Z,23.92
2022-11-13T12:50:31.700Z,21.92
2022-11-13T12:53:50.764Z,20.25
2022-11-13T12:57:09.137Z,20.33
2022-11-13T13:00:27.054Z,18.37
2022-11-13T13:07:08.194Z,19.20
2022-11-13T13:10:22.721Z,20.77
2022-11-13T13:13:38.363Z,18.92
2022-11-13T13:16:44.068Z,19.37
2022-11-13T13:19:59.835Z,19.37
2022-11-13T13:23:08.597Z,20.55
2022-11-13T13:26:18.506Z,22.37
2022-11-13T13:29:26.613Z,22.08
2022-11-13T13:32:40.535Z,22.92
2022-11-13T13:35:52.898Z,23.45
2022-11-13T13:39:04.268Z,18.40
2022-11-13T13:42:24.742Z,19.98
2022-11-13T13:45:42.957Z,19.37
2022-11-13T13:48:50.744Z,18.83
2022-11-13T13:51:58.127Z,20.62
2022-11-13T13:55:05.654Z,19.65
2022-11-13T13:58:16.266Z,17.27
2022-11-13T14:01:31.146Z,17.20
2022-11-13T14:04:45.909Z,21.75
2022-11-13T14:07:51.330Z,19.60
2022-11-13T14:10:56.762Z,20.83
2022-11-13T14:14:09.051Z,17.10
2022-11-13T14:17:25.226Z,19.40
2022-11-13T14:20:31.224Z,16.55
2022-11-13T14:23:38.877Z,18.05
2022-11-13T14:26:45.193Z,24.17
2022-11-13T14:29:53.222Z,18.92
2022-11-13T14:33:03.297Z,21.90
2022-11-13T14:36:09.550Z,26.23
2022-11-13T14:39:23.271Z,27.75
2022-11-13T14:42:36.796Z,30.65
2022-11-13T14:45:53.705Z,35.95
2022-11-13T14:49:00.748Z,28.10
2022-11-13T14:52:07.136Z,28.10
2022-11-13T14:55:24.928Z,25.77
2022-11-13T14:58:33.255Z,17.77
2022-11-13T15:01:39.233Z,21.80
2022-11-13T15:04:46.166Z,19.35
2022-11-13T15:07:52.989Z,23.27
2022-11-13T15:10:58.613Z,25.85
2022-11-13T15:14:04.724Z,19.45
2022-11-13T15:17:16.860Z,19.35
2022-11-13T15:20:27.068Z,16.20
2022-11-13T15:23:32.993Z,18.95
2022-11-13T15:26:39.071Z,19.17
2022-11-13T15:29:45.488Z,19.48
2022-11-13T15:32:53.984Z,16.60
2022-11-13T15:36:01.694Z,24.08
2022-11-13T15:39:12.691Z,19.60
2022-11-13T15:42:29.793Z,19.60
2022-11-13T15:45:39.882Z,18.85
2022-11-13T15:48:49.704Z,16.33
2022-11-13T15:51:56.864Z,23.75
2022-11-13T15:55:04.504Z,20.55
2022-11-13T15:58:16.057Z,23.75
2022-11-13T16:01:22.397Z,18.40
2022-11-13T16:04:44.090Z,19.55
2022-11-13T16:07:55.269Z,21.98
2022-11-13T16:11:00.846Z,24.05
2022-11-13T16:14:06.880Z,21.58
2022-11-13T16:17:16.630Z,20.20
2022-11-13T16:20:22.256Z,23.15
2022-11-13T16:23:30.014Z,21.67
2022-11-13T16:26:36.286Z,19.33
2022-11-13T16:29:42.080Z,20.50
2022-11-13T16:32:47.867Z,18.55
2022-11-13T16:35:55.043Z,22.70
2022-11-13T16:39:02.279Z,21.55
2022-11-13T16:42:08.215Z,20.15
2022-11-13T16:45:13.567Z,19.85
2022-11-13T16:48:18.851Z,19.15
2022-11-13T16:51:24.521Z,15.95
2022-11-13T16:54:31.502Z,25.10
2022-11-13T16:57:37.562Z,20.98
2022-11-13T17:00:43.572Z,25.10
2022-11-13T17:03:50.332Z,27.48
2022-11-13T17:06:57.856Z,23.42
2022-11-13T17:13:31.343Z,25.62
2022-11-13T17:16:36.742Z,28.05
2022-11-13T17:19:44.125Z,20.45
2022-11-13T17:22:49.693Z,23.33
2022-11-13T17:25:56.806Z,24.00
2022-11-13T17:29:05.196Z,24.23
2022-11-13T17:32:10.841Z,21.77
2022-11-13T17:35:16.761Z,18.33
2022-11-13T17:38:22.496Z,19.25
2022-11-13T17:41:29.278Z,21.30
2022-11-13T17:44:34.188Z,16.40
2022-11-13T17:47:39.405Z,44.63
2022-11-13T17:50:44.596Z,77.28
2022-11-13T17:53:50.186Z,32.10
2022-11-13T17:56:57.156Z,19.23
2022-11-13T18:00:03.258Z,24.37
2022-11-13T18:03:08.761Z,17.98
2022-11-13T18:06:19.549Z,15.80
2022-11-13T18:09:25.804Z,15.57
2022-11-13T18:12:32.847Z,17.65
2022-11-13T18:15:39.344Z,18.75
2022-11-13T18:18:45.448Z,17.17
2022-11-13T18:21:51.217Z,15.55
2022-11-13T18:24:56.594Z,16.95
2022-11-13T18:28:03.056Z,19.55
2022-11-13T18:31:09.215Z,17.73
2022-11-13T18:34:17.690Z,16.65
2022-11-13T18:37:23.679Z,14.48
2022-11-13T18:40:29.156Z,15.48
2022-11-13T18:43:36.984Z,15.55
2022-11-13T18:46:42.591Z,18.33
2022-11-13T18:49:48.330Z,16.17
2022-11-13T18:52:56.361Z,14.85
2022-11-13T18:56:02.580Z,15.52
2022-11-13T18:59:11.047Z,15.10
2022-11-13T19:02:16.889Z,13.88
2022-11-13T19:05:22.485Z,15.52
2022-11-13T19:08:28.208Z,15.32
2022-11-13T19:11:34.503Z,14.68
2022-11-13T19:14:41.254Z,16.00
2022-11-13T19:17:50.355Z,15.55
2022-11-13T19:20:58.275Z,17.65
2022-11-13T19:24:04.114Z,15.93
2022-11-13T19:27:09.752Z,16.45
2022-11-13T19:30:16.796Z,15.52
2022-11-13T19:33:22.779Z,17.40
2022-11-13T19:36:29.622Z,18.27
2022-11-13T19:39:35.651Z,17.98
2022-11-13T19:42:42.177Z,19.50
2022-11-13T19:45:49.234Z,17.05
2022-11-13T19:48:55.032Z,16.55
2022-11-13T19:52:00.843Z,17.25
2022-11-13T19:55:06.995Z,20.70
2022-11-13T19:58:12.950Z,19.27
2022-11-13T20:01:22.757Z,18.55
2022-11-13T20:04:28.916Z,17.20
2022-11-13T20:07:34.677Z,19.92
2022-11-13T20:10:40.365Z,18.60
2022-11-13T20:13:46.354Z,21.25
2022-11-13T20:16:53.163Z,18.25
2022-11-13T20:19:58.761Z,16.92
2022-11-13T20:23:03.957Z,19.00
2022-11-13T20:26:13.602Z,20.40
2022-11-13T20:29:19.190Z,17.92
2022-11-13T20:32:27.592Z,17.55
2022-11-13T20:35:33.636Z,17.73
2022-11-13T20:38:39.823Z,21.35
2022-11-13T20:41:45.294Z,20.77
2022-11-13T20:44:50.970Z,18.48
2022-11-13T20:47:58.096Z,18.27
2022-11-13T20:51:08.304Z,16.87
2022-11-13T20:54:14.004Z,20.58
2022-11-13T20:57:21.350Z,17.95
2022-11-13T21:00:27.102Z,18.12
2022-11-13T21:03:39.913Z,17.25
2022-11-13T21:06:47.333Z,21.12
2022-11-13T21:09:52.896Z,17.83
2022-11-13T21:12:58.853Z,20.02
2022-11-13T21:16:06.808Z,19.67
2022-11-13T21:19:14.290Z,17.55
2022-11-13T21:22:20.060Z,23.77
2022-11-13T21:25:25.398Z,18.98
2022-11-13T21:28:33.682Z,21.80
2022-11-13T21:31:39.304Z,20.33
2022-11-13T21:34:46.552Z,22.70
2022-11-13T21:37:51.981Z,22.85
2022-11-13T21:41:14.618Z,25.35
2022-11-13T21:44:20.457Z,24.20
2022-11-13T21:47:26.216Z,23.55
2022-11-13T21:50:33.264Z,25.12
2022-11-13T21:53:39.745Z,22.52
2022-11-13T21:56:45.565Z,24.60
2022-11-13T21:59:51.594Z,23.90
2022-11-13T22:02:57.213Z,20.98
2022-11-13T22:06:19.536Z,24.23
2022-11-13T22:09:26.925Z,21.40
2022-11-13T22:12:32.732Z,22.40
2022-11-13T22:15:38.377Z,19.87
2022-11-13T22:18:43.907Z,20.40
2022-11-13T22:21:52.611Z,18.48
2022-11-13T22:24:58.061Z,25.17
2022-11-13T22:28:03.476Z,25.90
2022-11-13T22:31:12.660Z,29.58
2022-11-13T22:34:18.330Z,21.25
2022-11-13T22:37:25.169Z,22.50
2022-11-13T22:40:30.817Z,14.65
2022-11-13T22:43:40.209Z,24.63
2022-11-13T22:46:45.986Z,14.90
2022-11-13T22:49:51.697Z,17.58
2022-11-13T22:52:58.576Z,17.65
2022-11-13T22:56:05.937Z,12.43
2022-11-13T22:59:13.231Z,22.85
2022-11-13T23:02:19.055Z,14.25
2022-11-13T23:05:24.606Z,19.17
2022-11-13T23:08:33.261Z,28.95
2022-11-13T23:11:42.388Z,14.63
2022-11-13T23:14:47.906Z,22.98
2022-11-13T23:17:53.463Z,11.32
2022-11-13T23:20:59.044Z,13.07
2022-11-13T23:24:06.750Z,11.20
2022-11-13T23:27:13.111Z,15.18
2022-11-13T23:30:18.869Z,13.15
2022-11-13T23:33:24.998Z,17.30
2022-11-13T23:36:31.552Z,9.82
2022-11-13T23:39:38.657Z,12.02
2022-11-13T23:42:55.342Z,18.30
2022-11-13T23:46:01.227Z,11.55
2022-11-13T23:49:06.968Z,15.20
2022-11-13T23:52:12.566Z,10.15
2022-11-13T23:55:21.239Z,12.15
2022-11-13T23:58:27.219Z,17.75
